Terminal Aerodrome Forecast
Issued by NWS

Home | Current Version | Previous Version | Text Only | Print | Product List | Glossary On
Versions: 1 2 3 4 5 6 7 8 9 10 11 12 13 14 15
509
FTUS46 KSEW 211122
TAFBFI
TAF
KBFI 211122Z 2112/2212 17012G20KT P6SM VCSH SCT018 BKN040 BKN050
     FM211700 20010KT P6SM SCT030 BKN050
     FM212100 24007KT P6SM VCSH BKN035 OVC050
     FM220100 33007KT P6SM -SHRA SCT025 BKN040 OVC060
     FM220400 03003KT P6SM VCSH SCT040 BKN060=

USA.gov is the U.S. government's official web portal to all federal, state and local government web resources and services.